createdAt,value
2022-10-23T00:01:28.318Z,18.75
2022-10-23T00:04:08.652Z,17.38
2022-10-23T00:06:35.821Z,16.50
2022-10-23T00:09:03.474Z,20.05
2022-10-23T00:11:30.994Z,16.35
2022-10-23T00:14:00.290Z,16.60
2022-10-23T00:16:27.245Z,19.73
2022-10-23T00:18:53.497Z,18.45
2022-10-23T00:21:20.068Z,17.77
2022-10-23T00:23:46.625Z,14.05
2022-10-23T00:26:16.405Z,14.18
2022-10-23T00:28:43.643Z,13.75
2022-10-23T00:31:10.411Z,16.73
2022-10-23T00:33:36.728Z,13.68
2022-10-23T00:36:06.959Z,15.05
2022-10-23T00:38:33.215Z,15.10
2022-10-23T00:40:59.521Z,17.38
2022-10-23T00:43:27.165Z,17.10
2022-10-23T00:45:53.712Z,16.98
2022-10-23T00:48:20.299Z,15.70
2022-10-23T00:50:47.588Z,18.92
2022-10-23T00:53:14.929Z,17.77
2022-10-23T00:55:45.860Z,14.77
2022-10-23T00:58:13.778Z,15.57
2022-10-23T01:00:51.141Z,17.38
2022-10-23T01:03:19.023Z,14.45
2022-10-23T01:05:48.787Z,27.23
2022-10-23T01:08:35.313Z,19.73
2022-10-23T01:11:10.036Z,20.02
2022-10-23T01:13:43.515Z,13.63
2022-10-23T01:16:21.100Z,17.60
2022-10-23T01:19:01.671Z,13.35
2022-10-23T01:21:34.784Z,24.30
2022-10-23T01:24:04.313Z,20.50
2022-10-23T01:26:39.401Z,20.15
2022-10-23T01:29:05.624Z,17.55
2022-10-23T01:31:37.206Z,15.32
2022-10-23T01:34:09.788Z,16.98
2022-10-23T01:36:38.279Z,19.45
2022-10-23T01:39:09.605Z,14.60
2022-10-23T01:41:39.500Z,16.60
2022-10-23T01:44:15.103Z,18.58
2022-10-23T01:46:42.825Z,15.70
2022-10-23T01:49:10.794Z,21.88
2022-10-23T01:51:38.488Z,20.55
2022-10-23T01:54:07.098Z,18.67
2022-10-23T01:56:35.013Z,16.30
2022-10-23T01:59:03.109Z,21.10
2022-10-23T02:01:30.412Z,23.33
2022-10-23T02:06:23.800Z,12.55
2022-10-23T02:08:50.169Z,21.10
2022-10-23T02:11:21.115Z,16.67
2022-10-23T02:13:59.632Z,14.85
2022-10-23T02:16:36.908Z,16.25
2022-10-23T02:19:03.148Z,12.73
2022-10-23T02:21:33.035Z,19.55
2022-10-23T02:24:02.211Z,18.45
2022-10-23T02:26:36.661Z,14.23
2022-10-23T02:29:09.343Z,14.75
2022-10-23T02:31:36.069Z,14.00
2022-10-23T02:34:03.026Z,15.00
2022-10-23T02:36:29.318Z,17.25
2022-10-23T02:38:55.581Z,14.30
2022-10-23T02:41:31.128Z,20.27
2022-10-23T02:46:34.837Z,18.90
2022-10-23T02:49:04.279Z,15.25
2022-10-23T02:51:41.870Z,16.00
2022-10-23T02:54:11.991Z,15.45
2022-10-23T02:56:38.703Z,16.58
2022-10-23T02:59:05.032Z,17.67
2022-10-23T03:01:48.398Z,19.35
2022-10-23T03:04:15.957Z,15.80
2022-10-23T03:06:42.641Z,21.40
2022-10-23T03:09:09.431Z,18.38
2022-10-23T03:11:36.069Z,14.85
2022-10-23T03:14:02.788Z,15.30
2022-10-23T03:16:29.060Z,14.85
2022-10-23T03:18:55.403Z,18.73
2022-10-23T03:21:21.702Z,19.00
2022-10-23T03:23:47.969Z,12.90
2022-10-23T03:26:14.249Z,12.25
2022-10-23T03:28:40.534Z,16.50
2022-10-23T03:31:06.861Z,18.75
2022-10-23T03:33:33.169Z,15.90
2022-10-23T03:35:59.426Z,14.40
2022-10-23T03:38:25.691Z,11.85
2022-10-23T03:40:52.042Z,12.25
2022-10-23T03:43:18.377Z,10.85
2022-10-23T03:45:44.637Z,19.75
2022-10-23T03:48:10.910Z,13.68
2022-10-23T03:50:37.207Z,15.30
2022-10-23T03:53:03.486Z,18.67
2022-10-23T03:55:29.716Z,13.40
2022-10-23T03:57:55.976Z,15.68
2022-10-23T04:00:22.454Z,12.32
2022-10-23T04:02:48.986Z,16.60
2022-10-23T04:05:15.482Z,18.33
2022-10-23T04:07:41.811Z,11.52
2022-10-23T04:10:08.315Z,16.48
2022-10-23T04:12:35.172Z,13.10
2022-10-23T04:15:01.428Z,17.52
2022-10-23T04:19:59.584Z,13.68
2022-10-23T04:22:28.285Z,11.80
2022-10-23T04:24:55.027Z,15.30
2022-10-23T04:27:21.448Z,12.68
2022-10-23T04:29:47.828Z,12.63
2022-10-23T04:32:14.235Z,9.40
2022-10-23T04:34:40.503Z,11.43
2022-10-23T04:37:06.825Z,11.95
2022-10-23T04:39:33.094Z,20.58
2022-10-23T04:41:59.367Z,11.98
2022-10-23T04:44:25.645Z,14.05
2022-10-23T04:46:51.870Z,16.85
2022-10-23T04:49:18.211Z,9.52
2022-10-23T04:51:44.526Z,14.50
2022-10-23T04:54:10.769Z,22.25
2022-10-23T04:56:37.138Z,12.88
2022-10-23T04:59:03.606Z,17.48
2022-10-23T05:01:29.936Z,17.30
2022-10-23T05:03:57.321Z,13.05
2022-10-23T05:06:23.690Z,11.32
2022-10-23T05:08:50.333Z,14.15
2022-10-23T05:11:16.622Z,11.27
2022-10-23T05:13:42.907Z,15.55
2022-10-23T05:16:09.545Z,11.35
2022-10-23T05:18:37.939Z,14.93
2022-10-23T05:21:07.579Z,16.15
2022-10-23T05:23:35.839Z,13.77
2022-10-23T05:26:03.351Z,10.18
2022-10-23T05:28:29.615Z,14.38
2022-10-23T05:30:58.781Z,9.73
2022-10-23T05:33:25.416Z,11.30
2022-10-23T05:35:51.964Z,16.30
2022-10-23T05:38:18.561Z,17.23
2022-10-23T05:40:44.921Z,14.57
2022-10-23T05:43:11.189Z,10.70
2022-10-23T05:45:37.444Z,15.73
2022-10-23T05:48:11.141Z,15.07
2022-10-23T05:50:43.228Z,15.00
2022-10-23T05:53:12.306Z,14.80
2022-10-23T05:55:38.647Z,8.95
2022-10-23T05:58:04.967Z,11.55
2022-10-23T06:00:31.368Z,16.25
2022-10-23T06:03:01.122Z,12.73
2022-10-23T06:05:27.510Z,12.02
2022-10-23T06:07:57.476Z,14.35
2022-10-23T06:10:23.753Z,14.98
2022-10-23T06:12:51.335Z,13.93
2022-10-23T06:15:17.663Z,12.73
2022-10-23T06:17:44.348Z,15.88
2022-10-23T06:20:11.096Z,9.60
2022-10-23T06:22:37.329Z,9.80
2022-10-23T06:25:03.808Z,8.60
2022-10-23T06:27:30.091Z,12.20
2022-10-23T06:29:56.378Z,12.85
2022-10-23T06:32:22.686Z,14.02
2022-10-23T06:34:49.077Z,16.58
2022-10-23T06:37:15.389Z,15.50
2022-10-23T06:39:41.821Z,15.27
2022-10-23T06:42:08.064Z,24.40
2022-10-23T06:44:34.484Z,15.60
2022-10-23T06:47:02.184Z,10.80
2022-10-23T06:49:28.536Z,11.63
2022-10-23T06:51:54.807Z,14.77
2022-10-23T06:54:21.447Z,14.55
2022-10-23T06:56:47.878Z,12.02
2022-10-23T06:59:15.083Z,18.17
2022-10-23T07:01:41.713Z,10.73
2022-10-23T07:04:08.099Z,16.88
2022-10-23T07:06:34.391Z,14.98
2022-10-23T07:09:00.667Z,12.50
2022-10-23T07:11:27.803Z,13.45
2022-10-23T07:13:54.057Z,17.88
2022-10-23T07:16:21.427Z,11.13
2022-10-23T07:18:48.462Z,16.42
2022-10-23T07:21:14.905Z,15.38
2022-10-23T07:23:41.221Z,15.35
2022-10-23T07:26:08.873Z,15.38
2022-10-23T07:28:35.530Z,14.23
2022-10-23T07:31:02.084Z,12.43
2022-10-23T07:33:28.676Z,10.00
2022-10-23T07:35:55.009Z,12.65
2022-10-23T07:38:21.551Z,22.40
2022-10-23T07:40:47.899Z,12.13
2022-10-23T07:43:14.348Z,16.00
2022-10-23T07:45:41.160Z,14.20
2022-10-23T07:48:08.838Z,12.65
2022-10-23T07:50:37.368Z,13.45
2022-10-23T07:53:03.641Z,19.00
2022-10-23T07:55:29.925Z,15.45
2022-10-23T07:57:56.214Z,12.80
2022-10-23T08:02:53.877Z,11.65
2022-10-23T08:05:20.450Z,11.85
2022-10-23T08:07:47.022Z,17.65
2022-10-23T08:10:13.299Z,13.00
2022-10-23T08:12:39.637Z,14.02
2022-10-23T08:15:06.178Z,17.02
2022-10-23T08:17:32.488Z,14.65
2022-10-23T08:19:58.768Z,13.05
2022-10-23T08:22:25.097Z,11.23
2022-10-23T08:24:51.536Z,8.52
2022-10-23T08:27:17.857Z,13.10
2022-10-23T08:29:44.260Z,11.40
2022-10-23T08:32:10.614Z,16.23
2022-10-23T08:34:37.863Z,12.38
2022-10-23T08:37:04.170Z,12.65
2022-10-23T08:39:30.504Z,13.60
2022-10-23T08:41:57.617Z,15.13
2022-10-23T08:44:35.781Z,17.40
2022-10-23T08:47:05.671Z,10.88
2022-10-23T08:49:50.755Z,11.10
2022-10-23T08:52:21.985Z,7.38
2022-10-23T08:55:07.276Z,11.65
2022-10-23T08:57:40.031Z,11.95
2022-10-23T09:00:13.131Z,9.43
2022-10-23T09:02:42.293Z,10.10
2022-10-23T09:05:13.160Z,9.48
2022-10-23T09:07:54.047Z,9.02
2022-10-23T09:10:38.392Z,9.00
2022-10-23T09:13:20.298Z,10.32
2022-10-23T09:15:49.463Z,8.82
2022-10-23T09:18:17.350Z,10.43
2022-10-23T09:20:46.820Z,11.57
2022-10-23T09:23:15.972Z,9.13
2022-10-23T09:25:42.453Z,8.95
2022-10-23T09:28:17.291Z,8.25
2022-10-23T09:30:43.564Z,11.35
2022-10-23T09:33:21.763Z,9.35
2022-10-23T09:35:52.817Z,10.52
2022-10-23T09:38:26.914Z,10.10
2022-10-23T09:40:53.411Z,7.97
2022-10-23T09:43:25.827Z,13.75
2022-10-23T09:46:00.033Z,9.52
2022-10-23T09:48:26.840Z,8.55
2022-10-23T09:50:58.012Z,10.75
2022-10-23T09:53:30.914Z,9.73
2022-10-23T09:55:59.029Z,7.20
2022-10-23T09:58:29.846Z,9.55
2022-10-23T10:00:57.070Z,8.45
2022-10-23T10:03:24.135Z,8.13
2022-10-23T10:06:00.690Z,10.27
2022-10-23T10:08:45.608Z,10.65
2022-10-23T10:11:22.512Z,8.07
2022-10-23T10:13:54.209Z,8.95
2022-10-23T10:16:30.448Z,13.98
2022-10-23T10:19:00.370Z,14.25
2022-10-23T10:21:32.664Z,10.48
2022-10-23T10:24:11.090Z,6.60
2022-10-23T10:26:52.853Z,9.07
2022-10-23T10:29:25.969Z,10.07
2022-10-23T10:31:58.658Z,11.65
2022-10-23T10:34:34.101Z,9.18
2022-10-23T10:39:49.670Z,9.43
2022-10-23T10:42:34.843Z,9.70
2022-10-23T10:45:21.533Z,7.88
2022-10-23T10:47:59.839Z,7.90
2022-10-23T10:50:26.174Z,10.75
2022-10-23T10:53:04.417Z,6.47
2022-10-23T10:55:37.589Z,7.18
2022-10-23T10:58:10.745Z,7.05
2022-10-23T11:00:37.086Z,11.43
2022-10-23T11:03:06.398Z,4.80
2022-10-23T11:05:42.390Z,12.63
2022-10-23T11:08:11.799Z,10.75
2022-10-23T11:10:40.839Z,4.90
2022-10-23T11:13:18.500Z,8.85
2022-10-23T11:15:44.998Z,8.23
2022-10-23T11:18:18.927Z,6.75
2022-10-23T11:21:14.341Z,7.32
2022-10-23T11:23:48.894Z,5.60
2022-10-23T11:26:21.644Z,15.43
2022-10-23T11:29:06.435Z,6.65
2022-10-23T11:31:44.295Z,12.32
2022-10-23T11:34:22.882Z,9.63
2022-10-23T11:36:51.729Z,10.32
2022-10-23T11:39:25.931Z,6.53
2022-10-23T11:41:54.627Z,5.85
2022-10-23T11:44:27.844Z,9.38
2022-10-23T11:47:04.412Z,7.30
2022-10-23T11:49:30.804Z,8.02
2022-10-23T11:52:01.083Z,7.93
2022-10-23T11:54:27.720Z,9.02
2022-10-23T11:57:14.320Z,9.30
2022-10-23T11:59:51.945Z,8.75
2022-10-23T12:02:31.744Z,4.60
2022-10-23T12:05:06.271Z,6.88
2022-10-23T12:07:41.912Z,4.85
2022-10-23T12:10:17.607Z,6.97
2022-10-23T12:15:16.065Z,7.95
2022-10-23T12:17:43.319Z,6.78
2022-10-23T12:20:12.510Z,4.43
2022-10-23T12:22:48.053Z,3.92
2022-10-23T12:25:19.725Z,8.38
2022-10-23T12:27:57.888Z,5.30
2022-10-23T12:30:44.357Z,5.10
2022-10-23T12:33:29.422Z,10.60
2022-10-23T12:36:31.533Z,5.13
2022-10-23T12:38:58.771Z,5.90
2022-10-23T12:41:29.484Z,13.60
2022-10-23T12:44:01.226Z,6.20
2022-10-23T12:46:30.360Z,6.10
2022-10-23T12:48:57.426Z,6.22
2022-10-23T12:51:25.380Z,5.32
2022-10-23T12:53:51.766Z,4.50
2022-10-23T12:56:18.480Z,6.38
2022-10-23T12:58:48.983Z,7.63
2022-10-23T13:01:23.188Z,6.05
2022-10-23T13:03:50.296Z,7.07
2022-10-23T13:06:16.858Z,6.30
2022-10-23T13:08:45.006Z,5.82
2022-10-23T13:11:15.351Z,5.15
2022-10-23T13:13:42.100Z,7.60
2022-10-23T13:16:18.955Z,15.07
2022-10-23T13:18:45.394Z,7.15
2022-10-23T13:21:20.840Z,4.97
2022-10-23T13:26:25.627Z,7.57
2022-10-23T13:28:52.106Z,9.80
2022-10-23T13:31:18.345Z,10.07
2022-10-23T13:33:48.572Z,11.77
2022-10-23T13:36:14.823Z,7.40
2022-10-23T13:38:42.204Z,6.53
2022-10-23T13:41:13.303Z,8.32
2022-10-23T13:43:39.612Z,9.20
2022-10-23T13:46:06.067Z,7.47
2022-10-23T13:48:32.591Z,10.32
2022-10-23T13:51:03.106Z,3.47
2022-10-23T13:53:30.450Z,9.25
2022-10-23T13:55:58.730Z,3.45
2022-10-23T13:58:25.205Z,5.22
2022-10-23T14:00:53.123Z,5.47
2022-10-23T14:03:20.729Z,4.97
2022-10-23T14:05:46.984Z,6.20
2022-10-23T14:08:13.208Z,5.07
2022-10-23T14:10:39.465Z,5.35
2022-10-23T14:13:06.128Z,5.55
2022-10-23T14:15:32.399Z,8.88
2022-10-23T14:18:00.170Z,4.93
2022-10-23T14:20:28.330Z,3.90
2022-10-23T14:22:54.686Z,5.85
2022-10-23T14:25:21.435Z,6.28
2022-10-23T14:27:47.766Z,6.90
2022-10-23T14:30:14.186Z,5.80
2022-10-23T14:32:40.844Z,6.70
2022-10-23T14:35:07.483Z,5.00
2022-10-23T14:37:34.506Z,6.13
2022-10-23T14:40:00.831Z,5.72
2022-10-23T14:42:33.978Z,7.03
2022-10-23T14:45:01.793Z,3.85
2022-10-23T14:47:28.345Z,6.45
2022-10-23T14:49:54.762Z,6.05
2022-10-23T14:52:21.301Z,6.45
2022-10-23T14:54:47.530Z,5.93
2022-10-23T14:57:16.527Z,10.35
2022-10-23T14:59:43.128Z,5.50
2022-10-23T15:02:10.624Z,6.80
2022-10-23T15:04:37.018Z,7.55
2022-10-23T15:07:03.421Z,11.75
2022-10-23T15:09:32.385Z,10.07
2022-10-23T15:11:58.641Z,5.03
2022-10-23T15:14:24.931Z,6.30
2022-10-23T15:16:51.485Z,8.32
2022-10-23T15:19:18.817Z,5.28
2022-10-23T15:21:46.058Z,8.50
2022-10-23T15:24:12.357Z,7.80
2022-10-23T15:26:39.457Z,6.28
2022-10-23T15:29:06.607Z,7.53
2022-10-23T15:31:38.578Z,5.18
2022-10-23T15:34:05.498Z,5.63
2022-10-23T15:36:31.930Z,8.98
2022-10-23T15:38:58.762Z,10.30
2022-10-23T15:41:29.711Z,8.50
2022-10-23T15:43:56.066Z,5.88
2022-10-23T15:46:22.362Z,9.50
2022-10-23T15:48:48.604Z,6.53
2022-10-23T15:51:14.894Z,5.72
2022-10-23T15:53:41.171Z,12.80
2022-10-23T15:56:07.606Z,5.95
2022-10-23T15:58:33.875Z,8.63
2022-10-23T16:01:06.380Z,12.40
2022-10-23T16:03:36.795Z,8.25
2022-10-23T16:06:04.197Z,7.80
2022-10-23T16:08:30.515Z,11.48
2022-10-23T16:10:56.953Z,4.32
2022-10-23T16:13:23.205Z,7.15
2022-10-23T16:15:49.831Z,12.55
2022-10-23T16:18:18.001Z,4.00
2022-10-23T16:20:44.299Z,5.82
2022-10-23T16:23:10.514Z,6.03
2022-10-23T16:25:37.354Z,6.75
2022-10-23T16:28:04.220Z,7.18
2022-10-23T16:30:30.494Z,6.60
2022-10-23T16:32:56.881Z,7.95
2022-10-23T16:35:24.407Z,7.05
2022-10-23T16:37:51.030Z,11.48
2022-10-23T16:40:17.317Z,7.05
2022-10-23T16:42:45.087Z,5.82
2022-10-23T16:45:11.617Z,12.07
2022-10-23T16:47:37.914Z,5.82
2022-10-23T16:50:04.354Z,7.55
2022-10-23T16:52:30.816Z,7.88
2022-10-23T16:54:57.109Z,6.72
2022-10-23T16:57:23.356Z,6.95
2022-10-23T16:59:50.188Z,11.70
2022-10-23T17:02:17.013Z,7.45
2022-10-23T17:04:43.573Z,8.40
2022-10-23T17:07:12.928Z,4.78
2022-10-23T17:09:40.307Z,9.77
2022-10-23T17:12:06.801Z,6.68
2022-10-23T17:14:34.191Z,9.65
2022-10-23T17:17:01.561Z,8.02
2022-10-23T17:19:45.655Z,10.93
2022-10-23T17:22:13.135Z,9.30
2022-10-23T17:24:39.909Z,6.28
2022-10-23T17:27:06.312Z,6.63
2022-10-23T17:29:32.630Z,9.93
2022-10-23T17:31:59.028Z,7.13
2022-10-23T17:34:25.368Z,8.80
2022-10-23T17:36:52.917Z,3.58
2022-10-23T17:39:20.991Z,7.20
2022-10-23T17:41:47.608Z,4.55
2022-10-23T17:44:14.090Z,8.80
2022-10-23T17:46:40.394Z,9.63
2022-10-23T17:49:06.826Z,8.63
2022-10-23T17:51:34.051Z,5.93
2022-10-23T17:54:01.999Z,7.55
2022-10-23T17:56:29.466Z,6.90
2022-10-23T17:58:59.411Z,7.63
2022-10-23T18:01:26.954Z,16.85
2022-10-23T18:03:54.064Z,5.97
2022-10-23T18:06:24.600Z,5.15
2022-10-23T18:08:54.325Z,7.40
2022-10-23T18:11:28.043Z,7.07
2022-10-23T18:13:54.904Z,6.10
2022-10-23T18:16:21.517Z,9.38
2022-10-23T18:18:48.299Z,5.50
2022-10-23T18:21:15.440Z,7.93
2022-10-23T18:23:41.722Z,5.53
2022-10-23T18:26:15.859Z,5.45
2022-10-23T18:28:42.658Z,7.25
2022-10-23T18:31:09.913Z,5.45
2022-10-23T18:33:36.234Z,5.78
2022-10-23T18:36:02.567Z,5.05
2022-10-23T18:38:30.134Z,9.98
2022-10-23T18:40:56.890Z,10.13
2022-10-23T18:43:41.895Z,7.85
2022-10-23T18:46:10.306Z,10.95
2022-10-23T18:48:36.641Z,16.58
2022-10-23T18:51:03.272Z,5.85
2022-10-23T18:53:29.518Z,8.52
2022-10-23T18:55:56.047Z,9.43
2022-10-23T18:58:22.356Z,8.85
2022-10-23T19:00:48.619Z,6.10
2022-10-23T19:03:15.153Z,5.85
2022-10-23T19:05:45.658Z,5.40
2022-10-23T19:08:12.591Z,11.20
2022-10-23T19:10:39.761Z,6.70
2022-10-23T19:13:06.072Z,6.95
2022-10-23T19:15:33.263Z,5.50
2022-10-23T19:18:00.187Z,5.22
2022-10-23T19:22:58.694Z,9.65
2022-10-23T19:25:27.067Z,9.32
2022-10-23T19:27:54.799Z,6.47
2022-10-23T19:30:22.742Z,4.32
2022-10-23T19:32:49.974Z,9.75
2022-10-23T19:35:17.260Z,9.63
2022-10-23T19:37:43.799Z,6.00
2022-10-23T19:40:10.873Z,4.50
2022-10-23T19:42:38.396Z,9.65
2022-10-23T19:45:05.554Z,5.18
2022-10-23T19:47:31.933Z,6.90
2022-10-23T19:49:58.193Z,7.38
2022-10-23T19:52:24.446Z,12.52
2022-10-23T19:54:51.059Z,3.72
2022-10-23T19:57:20.554Z,7.68
2022-10-23T19:59:52.251Z,9.25
2022-10-23T20:02:20.156Z,4.63
2022-10-23T20:04:46.809Z,11.95
2022-10-23T20:07:13.504Z,5.40
2022-10-23T20:09:40.010Z,4.57
2022-10-23T20:12:06.441Z,7.28
2022-10-23T20:14:33.194Z,6.63
2022-10-23T20:16:59.999Z,10.05
2022-10-23T20:19:26.596Z,8.18
2022-10-23T20:21:52.927Z,5.13
2022-10-23T20:24:19.968Z,8.00
2022-10-23T20:26:47.699Z,10.18
2022-10-23T20:29:14.151Z,4.70
2022-10-23T20:31:40.669Z,6.00
2022-10-23T20:34:07.275Z,4.15
2022-10-23T20:36:34.880Z,6.00
2022-10-23T20:39:02.571Z,3.47
2022-10-23T20:41:29.063Z,4.38
2022-10-23T20:43:56.107Z,2.40
2022-10-23T20:46:22.857Z,3.55
2022-10-23T20:48:49.645Z,3.15
2022-10-23T20:51:17.295Z,4.10
2022-10-23T20:53:44.163Z,4.00
2022-10-23T20:56:12.787Z,3.05
2022-10-23T20:58:39.095Z,7.45
2022-10-23T21:01:06.563Z,5.22
2022-10-23T21:03:32.947Z,4.47
2022-10-23T21:06:06.583Z,5.07
2022-10-23T21:08:33.048Z,2.17
2022-10-23T21:10:59.754Z,1.52
2022-10-23T21:13:26.450Z,2.15
2022-10-23T21:15:52.880Z,2.22
2022-10-23T21:18:26.444Z,2.17
2022-10-23T21:21:00.126Z,0.80
2022-10-23T21:23:28.370Z,2.35
2022-10-23T21:25:54.632Z,2.03
2022-10-23T21:28:21.170Z,3.33
2022-10-23T21:30:47.467Z,3.22
2022-10-23T21:33:14.284Z,3.15
2022-10-23T21:35:47.517Z,3.63
2022-10-23T21:38:24.469Z,2.78
2022-10-23T21:40:51.142Z,1.73
2022-10-23T21:43:17.848Z,1.75
2022-10-23T21:45:44.343Z,4.10
2022-10-23T21:48:10.641Z,2.08
2022-10-23T21:50:36.990Z,5.28
2022-10-23T21:53:03.303Z,3.72
2022-10-23T21:55:30.065Z,3.78
2022-10-23T21:57:56.727Z,1.00
2022-10-23T22:00:23.256Z,2.25
2022-10-23T22:02:49.829Z,5.63
2022-10-23T22:05:16.678Z,2.28
2022-10-23T22:07:46.414Z,3.08
2022-10-23T22:10:12.863Z,4.97
2022-10-23T22:12:39.465Z,4.55
2022-10-23T22:15:06.081Z,3.83
2022-10-23T22:17:32.323Z,3.60
2022-10-23T22:19:58.551Z,2.17
2022-10-23T22:22:24.789Z,2.63
2022-10-23T22:24:51.394Z,4.97
2022-10-23T22:27:17.794Z,5.57
2022-10-23T22:29:44.043Z,3.78
2022-10-23T22:32:10.311Z,5.20
2022-10-23T22:34:53.378Z,4.30
2022-10-23T22:37:20.190Z,6.07
2022-10-23T22:39:49.487Z,4.30
2022-10-23T22:42:15.793Z,8.32
2022-10-23T22:44:42.056Z,4.00
2022-10-23T22:47:08.343Z,5.95
2022-10-23T22:49:34.704Z,8.95
2022-10-23T22:52:01.019Z,4.93
2022-10-23T22:54:27.314Z,4.35
2022-10-23T22:56:53.580Z,2.65
2022-10-23T22:59:20.147Z,4.95
2022-10-23T23:01:47.429Z,5.28
2022-10-23T23:04:37.706Z,5.55
2022-10-23T23:07:04.509Z,3.67
2022-10-23T23:09:30.847Z,2.78
2022-10-23T23:11:57.166Z,4.43
2022-10-23T23:14:24.502Z,3.03
2022-10-23T23:16:52.151Z,3.30
2022-10-23T23:19:18.414Z,5.40
2022-10-23T23:21:44.683Z,6.85
2022-10-23T23:24:11.376Z,14.07
2022-10-23T23:26:37.657Z,4.13
2022-10-23T23:29:04.014Z,3.05
2022-10-23T23:31:30.271Z,5.75
2022-10-23T23:33:56.995Z,4.70
2022-10-23T23:36:24.779Z,6.35
2022-10-23T23:38:51.785Z,14.95
2022-10-23T23:41:19.380Z,8.38
2022-10-23T23:43:45.899Z,3.22
2022-10-23T23:46:12.867Z,4.80
2022-10-23T23:48:39.262Z,3.63
2022-10-23T23:51:05.945Z,7.82
2022-10-23T23:53:32.336Z,11.50
2022-10-23T23:55:58.722Z,8.90
2022-10-23T23:58:24.957Z,7.93
